createdAt,value
2022-12-03T00:01:15.804Z,5.98
2022-12-03T00:03:30.325Z,5.96
2022-12-03T00:05:48.893Z,5.96
2022-12-03T00:08:03.338Z,5.95
2022-12-03T00:10:17.850Z,5.95
2022-12-03T00:12:31.719Z,5.94
2022-12-03T00:14:45.593Z,5.93
2022-12-03T00:16:59.434Z,5.92
2022-12-03T00:19:13.381Z,5.89
2022-12-03T00:21:28.224Z,5.86
2022-12-03T00:23:42.538Z,5.82
2022-12-03T00:25:57.109Z,5.79
2022-12-03T00:28:11.161Z,5.77
2022-12-03T00:30:25.083Z,5.74
2022-12-03T00:32:38.827Z,5.70
2022-12-03T00:34:52.524Z,5.67
2022-12-03T00:37:06.184Z,5.63
2022-12-03T00:39:20.796Z,5.61
2022-12-03T00:41:34.217Z,5.57
2022-12-03T00:43:47.597Z,5.55
2022-12-03T00:46:01.058Z,5.53
2022-12-03T00:48:14.808Z,5.52
2022-12-03T00:50:28.516Z,5.53
2022-12-03T00:52:42.231Z,5.53
2022-12-03T00:54:55.780Z,5.52
2022-12-03T00:57:09.291Z,5.50
2022-12-03T00:59:22.929Z,5.48
2022-12-03T01:01:36.243Z,5.47
2022-12-03T01:03:49.617Z,5.46
2022-12-03T01:06:02.796Z,5.44
2022-12-03T01:08:16.108Z,5.42
2022-12-03T01:10:29.640Z,5.41
2022-12-03T01:12:42.878Z,5.40
2022-12-03T01:14:56.591Z,5.39
2022-12-03T01:17:10.342Z,5.38
2022-12-03T01:19:23.923Z,5.39
2022-12-03T01:21:37.452Z,5.40
2022-12-03T01:23:50.626Z,5.40
2022-12-03T01:26:03.878Z,5.39
2022-12-03T01:28:32.836Z,5.40
2022-12-03T01:30:59.293Z,5.39
2022-12-03T01:33:12.706Z,5.37
2022-12-03T01:35:26.108Z,5.35
2022-12-03T01:37:39.402Z,5.35
2022-12-03T01:39:52.771Z,5.34
2022-12-03T01:42:06.750Z,5.34
2022-12-03T01:44:24.886Z,5.33
2022-12-03T01:46:42.294Z,5.32
2022-12-03T01:48:57.445Z,5.32
2022-12-03T01:51:12.819Z,5.30
2022-12-03T01:53:26.460Z,5.29
2022-12-03T01:55:40.491Z,5.30
2022-12-03T01:57:56.538Z,5.33
2022-12-03T02:00:11.640Z,5.32
2022-12-03T02:02:28.431Z,5.33
2022-12-03T02:04:42.883Z,5.34
2022-12-03T02:06:56.396Z,5.33
2022-12-03T02:09:09.895Z,5.34
2022-12-03T02:11:29.052Z,5.34
2022-12-03T02:13:43.035Z,5.35
2022-12-03T02:15:56.417Z,5.36
2022-12-03T02:18:11.489Z,5.37
2022-12-03T02:20:25.357Z,5.39
2022-12-03T02:22:49.932Z,5.40
2022-12-03T02:25:15.873Z,5.40
2022-12-03T02:27:30.587Z,5.41
2022-12-03T02:29:43.964Z,5.41
2022-12-03T02:31:57.398Z,5.39
2022-12-03T02:34:14.617Z,5.38
2022-12-03T02:36:28.304Z,5.36
2022-12-03T02:38:42.656Z,5.35
2022-12-03T02:40:59.135Z,5.33
2022-12-03T02:43:12.849Z,5.33
2022-12-03T02:45:29.216Z,5.37
2022-12-03T02:47:46.730Z,5.42
2022-12-03T02:50:01.124Z,5.43
2022-12-03T02:52:14.932Z,5.43
2022-12-03T02:54:28.912Z,5.43
2022-12-03T02:56:42.297Z,5.42
2022-12-03T02:58:58.347Z,5.41
2022-12-03T03:01:12.765Z,5.42
2022-12-03T03:03:28.299Z,5.43
2022-12-03T03:05:43.424Z,5.47
2022-12-03T03:07:57.701Z,5.49
2022-12-03T03:10:15.033Z,5.51
2022-12-03T03:12:28.278Z,5.52
2022-12-03T03:14:41.973Z,5.54
2022-12-03T03:16:57.459Z,5.59
2022-12-03T03:19:10.820Z,5.63
2022-12-03T03:21:25.438Z,5.65
2022-12-03T03:23:38.643Z,5.68
2022-12-03T03:25:56.804Z,5.68
2022-12-03T03:28:10.767Z,5.70
2022-12-03T03:30:24.448Z,5.69
2022-12-03T03:32:37.888Z,5.68
2022-12-03T03:34:51.398Z,5.69
2022-12-03T03:37:04.997Z,5.70
2022-12-03T03:39:18.304Z,5.71
2022-12-03T03:41:31.951Z,5.71
2022-12-03T03:43:46.899Z,5.72
2022-12-03T03:46:00.640Z,5.73
2022-12-03T03:48:14.648Z,5.74
2022-12-03T03:50:28.404Z,5.77
2022-12-03T03:52:43.321Z,5.78
2022-12-03T03:54:56.828Z,5.79
2022-12-03T03:57:10.824Z,5.81
2022-12-03T03:59:24.220Z,5.82
2022-12-03T04:01:38.063Z,5.85
2022-12-03T04:03:51.243Z,5.88
2022-12-03T04:06:04.661Z,5.94
2022-12-03T04:08:17.912Z,5.97
2022-12-03T04:10:59.187Z,5.98
2022-12-03T04:13:12.374Z,5.98
2022-12-03T04:15:25.804Z,5.96
2022-12-03T04:17:39.119Z,5.94
2022-12-03T04:19:52.455Z,5.92
2022-12-03T04:22:22.533Z,5.91
2022-12-03T04:24:36.092Z,5.87
2022-12-03T04:27:05.593Z,5.86
2022-12-03T04:29:19.018Z,5.87
2022-12-03T04:31:48.893Z,5.88
2022-12-03T04:34:18.391Z,5.88
2022-12-03T04:36:31.572Z,5.88
2022-12-03T04:38:46.599Z,5.90
2022-12-03T04:41:07.187Z,5.93
2022-12-03T04:43:20.556Z,5.99
2022-12-03T04:45:33.936Z,6.03
2022-12-03T04:47:47.348Z,6.05
2022-12-03T04:50:03.533Z,6.08
2022-12-03T04:52:18.155Z,6.09
2022-12-03T04:54:31.891Z,6.13
2022-12-03T04:56:45.303Z,6.18
2022-12-03T04:58:58.547Z,6.19
2022-12-03T05:01:12.183Z,6.19
2022-12-03T05:03:25.425Z,6.25
2022-12-03T05:05:38.597Z,6.32
2022-12-03T05:07:51.913Z,6.36
2022-12-03T05:10:05.106Z,6.36
2022-12-03T05:12:18.370Z,6.33
2022-12-03T05:14:31.674Z,6.30
2022-12-03T05:16:45.110Z,6.28
2022-12-03T05:18:58.631Z,6.25
2022-12-03T05:21:12.166Z,6.23
2022-12-03T05:23:25.488Z,6.21
2022-12-03T05:25:38.755Z,6.21
2022-12-03T05:27:51.903Z,6.18
2022-12-03T05:30:05.256Z,6.16
2022-12-03T05:32:18.567Z,6.15
2022-12-03T05:34:31.770Z,6.15
2022-12-03T05:36:44.984Z,6.16
2022-12-03T05:38:58.262Z,6.16
2022-12-03T05:41:24.412Z,6.16
2022-12-03T05:43:38.288Z,6.16
2022-12-03T05:45:51.619Z,6.17
2022-12-03T05:48:05.623Z,6.17
2022-12-03T05:50:19.274Z,6.18
2022-12-03T05:52:32.608Z,6.19
2022-12-03T05:54:45.940Z,6.19
2022-12-03T05:56:59.151Z,6.22
2022-12-03T05:59:12.320Z,6.24
2022-12-03T06:01:25.701Z,6.24
2022-12-03T06:03:38.949Z,6.24
2022-12-03T06:05:52.847Z,6.23
2022-12-03T06:08:06.110Z,6.19
2022-12-03T06:10:21.834Z,6.15
2022-12-03T06:12:38.021Z,6.13
2022-12-03T06:14:51.533Z,6.08
2022-12-03T06:17:05.948Z,6.06
2022-12-03T06:19:19.043Z,6.04
2022-12-03T06:21:32.410Z,6.00
2022-12-03T06:23:46.003Z,5.97
2022-12-03T06:26:02.089Z,5.95
2022-12-03T06:28:15.333Z,5.94
2022-12-03T06:30:28.451Z,5.93
2022-12-03T06:32:43.838Z,5.92
2022-12-03T06:34:57.489Z,5.90
2022-12-03T06:37:10.898Z,5.90
2022-12-03T06:39:24.610Z,5.88
2022-12-03T06:41:38.073Z,5.90
2022-12-03T06:43:51.411Z,5.91
2022-12-03T06:46:04.798Z,5.90
2022-12-03T06:48:18.252Z,5.87
2022-12-03T06:50:32.035Z,5.85
2022-12-03T06:52:45.474Z,5.83
2022-12-03T06:54:58.697Z,5.82
2022-12-03T06:57:30.501Z,5.79
2022-12-03T06:59:43.574Z,5.78
2022-12-03T07:01:56.942Z,5.77
2022-12-03T07:04:11.050Z,5.78
2022-12-03T07:06:24.130Z,5.79
2022-12-03T07:08:37.347Z,5.80
2022-12-03T07:10:50.540Z,5.80
2022-12-03T07:13:03.620Z,5.85
2022-12-03T07:15:17.276Z,5.89
2022-12-03T07:17:30.440Z,5.94
2022-12-03T07:19:43.494Z,6.01
2022-12-03T07:21:56.883Z,6.08
2022-12-03T07:24:10.532Z,6.13
2022-12-03T07:26:23.692Z,6.13
2022-12-03T07:28:37.012Z,6.13
2022-12-03T07:30:50.227Z,6.16
2022-12-03T07:33:03.450Z,6.18
2022-12-03T07:35:17.097Z,6.17
2022-12-03T07:37:30.405Z,6.18
2022-12-03T07:39:43.673Z,6.17
2022-12-03T07:41:56.812Z,6.15
2022-12-03T07:44:14.182Z,6.13
2022-12-03T07:46:28.134Z,6.09
2022-12-03T07:48:41.294Z,6.06
2022-12-03T07:50:54.501Z,6.04
2022-12-03T07:53:07.782Z,6.03
2022-12-03T07:55:22.521Z,5.99
2022-12-03T07:57:35.964Z,5.97
2022-12-03T07:59:49.279Z,5.94
2022-12-03T08:02:03.589Z,5.91
2022-12-03T08:04:20.208Z,5.90
2022-12-03T08:06:33.456Z,5.88
2022-12-03T08:08:46.893Z,5.87
2022-12-03T08:11:00.077Z,5.87
2022-12-03T08:13:17.509Z,5.87
2022-12-03T08:15:39.088Z,5.87
2022-12-03T08:17:57.112Z,5.85
2022-12-03T08:20:18.097Z,5.84
2022-12-03T08:22:31.809Z,5.85
2022-12-03T08:24:46.034Z,5.86
2022-12-03T08:27:00.656Z,5.87
2022-12-03T08:29:15.776Z,5.87
2022-12-03T08:31:33.562Z,5.88
2022-12-03T08:33:47.923Z,5.90
2022-12-03T08:36:01.294Z,5.91
2022-12-03T08:38:53.028Z,5.91
2022-12-03T08:41:06.327Z,5.92
2022-12-03T08:43:25.793Z,5.98
2022-12-03T08:45:45.521Z,6.08
2022-12-03T08:48:00.883Z,6.18
2022-12-03T08:50:31.788Z,6.26
2022-12-03T08:52:45.268Z,6.33
2022-12-03T08:54:59.964Z,6.42
2022-12-03T08:57:30.487Z,6.52
2022-12-03T08:59:45.599Z,6.56
2022-12-03T09:01:59.185Z,6.61
2022-12-03T09:04:39.615Z,6.68
2022-12-03T09:06:52.871Z,6.76
2022-12-03T09:09:06.971Z,6.83
2022-12-03T09:11:20.504Z,6.93
2022-12-03T09:13:33.738Z,7.06
2022-12-03T09:15:47.043Z,7.18
2022-12-03T09:18:00.322Z,7.27
2022-12-03T09:20:15.243Z,7.35
2022-12-03T09:22:28.659Z,7.38
2022-12-03T09:24:41.886Z,7.40
2022-12-03T09:26:55.310Z,7.39
2022-12-03T09:29:12.167Z,7.39
2022-12-03T09:31:26.323Z,7.39
2022-12-03T09:33:39.872Z,7.36
2022-12-03T09:35:53.223Z,7.32
2022-12-03T09:38:06.548Z,7.27
2022-12-03T09:40:21.467Z,7.21
2022-12-03T09:42:34.902Z,7.14
2022-12-03T09:44:48.473Z,7.07
2022-12-03T09:47:03.108Z,7.01
2022-12-03T09:49:19.912Z,6.96
2022-12-03T09:51:37.998Z,6.91
2022-12-03T09:53:51.629Z,6.87
2022-12-03T09:56:06.742Z,6.84
2022-12-03T09:58:21.695Z,6.82
2022-12-03T10:00:36.574Z,6.80
2022-12-03T10:02:50.572Z,6.78
2022-12-03T10:05:04.337Z,6.76
2022-12-03T10:07:18.103Z,6.73
2022-12-03T10:09:32.473Z,6.72
2022-12-03T10:11:46.691Z,6.69
2022-12-03T10:14:01.094Z,6.69
2022-12-03T10:16:17.194Z,6.69
2022-12-03T10:18:36.866Z,6.72
2022-12-03T10:20:54.476Z,6.79
2022-12-03T10:23:07.648Z,6.82
2022-12-03T10:25:23.005Z,6.82
2022-12-03T10:27:37.242Z,6.81
2022-12-03T10:30:00.338Z,6.78
2022-12-03T10:32:14.890Z,6.73
2022-12-03T10:34:36.373Z,6.70
2022-12-03T10:36:49.769Z,6.65
2022-12-03T10:39:17.564Z,6.62
2022-12-03T10:41:32.537Z,6.61
2022-12-03T10:43:45.879Z,6.59
2022-12-03T10:46:20.630Z,6.58
2022-12-03T10:48:34.023Z,6.57
2022-12-03T10:50:54.921Z,6.56
2022-12-03T10:53:08.552Z,6.56
2022-12-03T10:55:22.443Z,6.57
2022-12-03T10:57:36.424Z,6.56
2022-12-03T10:59:51.486Z,6.58
2022-12-03T11:02:06.382Z,6.59
2022-12-03T11:04:32.816Z,6.60
2022-12-03T11:06:46.132Z,6.60
2022-12-03T11:09:05.335Z,6.61
2022-12-03T11:11:27.218Z,6.62
2022-12-03T11:13:58.710Z,6.64
2022-12-03T11:16:13.439Z,6.66
2022-12-03T11:18:55.131Z,6.67
2022-12-03T11:21:11.430Z,6.69
2022-12-03T11:24:00.636Z,6.71
2022-12-03T11:26:18.654Z,6.74
2022-12-03T11:29:04.357Z,6.74
2022-12-03T11:31:44.932Z,6.77
2022-12-03T11:34:44.278Z,6.78
2022-12-03T11:37:25.845Z,6.80
2022-12-03T11:40:21.899Z,6.80
2022-12-03T11:42:43.955Z,6.81
2022-12-03T11:45:26.530Z,6.82
2022-12-03T11:47:43.040Z,6.82
2022-12-03T11:49:56.706Z,6.82
2022-12-03T11:52:25.235Z,6.83
2022-12-03T11:54:41.706Z,6.85
2022-12-03T11:56:57.269Z,6.85
2022-12-03T11:59:17.269Z,6.86
2022-12-03T12:01:39.397Z,6.87
2022-12-03T12:03:53.682Z,6.87
2022-12-03T12:06:13.707Z,6.87
2022-12-03T12:08:26.892Z,6.87
2022-12-03T12:10:52.332Z,6.85
2022-12-03T12:13:05.774Z,6.83
2022-12-03T12:15:47.272Z,6.82
2022-12-03T12:18:00.531Z,6.80
2022-12-03T12:20:35.409Z,6.80
2022-12-03T12:22:48.841Z,6.78
2022-12-03T12:25:03.526Z,6.77
2022-12-03T12:27:18.435Z,6.73
2022-12-03T12:29:34.976Z,6.71
2022-12-03T12:31:53.474Z,6.68
2022-12-03T12:34:08.446Z,6.64
2022-12-03T12:36:21.696Z,6.59
2022-12-03T12:38:36.000Z,6.48
2022-12-03T12:40:51.496Z,6.35
2022-12-03T12:43:12.603Z,6.21
2022-12-03T12:45:30.614Z,6.03
2022-12-03T12:47:45.885Z,5.87
2022-12-03T12:49:59.426Z,5.73
2022-12-03T12:52:18.612Z,5.62
2022-12-03T12:54:32.009Z,5.52
2022-12-03T12:56:46.594Z,5.43
2022-12-03T12:59:01.027Z,5.38
2022-12-03T13:01:23.615Z,5.34
2022-12-03T13:03:41.771Z,5.30
2022-12-03T13:05:59.658Z,5.26
2022-12-03T13:08:25.788Z,5.25
2022-12-03T13:10:44.920Z,5.23
2022-12-03T13:12:58.821Z,5.19
2022-12-03T13:15:40.457Z,5.18
2022-12-03T13:17:54.912Z,5.21
2022-12-03T13:20:20.038Z,5.21
2022-12-03T13:22:34.198Z,5.22
2022-12-03T13:24:50.299Z,5.23
2022-12-03T13:27:05.824Z,5.25
2022-12-03T13:29:22.177Z,5.28
2022-12-03T13:31:43.880Z,5.31
2022-12-03T13:33:58.088Z,5.36
2022-12-03T13:36:19.189Z,5.39
2022-12-03T13:38:33.978Z,5.42
2022-12-03T13:40:47.912Z,5.44
2022-12-03T13:43:01.382Z,5.45
2022-12-03T13:45:35.158Z,5.48
2022-12-03T13:47:50.911Z,5.48
2022-12-03T13:50:19.547Z,5.49
2022-12-03T13:52:35.175Z,5.50
2022-12-03T13:54:48.494Z,5.52
2022-12-03T13:57:03.790Z,5.53
2022-12-03T13:59:22.964Z,5.56
2022-12-03T14:01:39.676Z,5.57
2022-12-03T14:03:53.679Z,5.58
2022-12-03T14:06:07.106Z,5.59
2022-12-03T14:08:20.465Z,5.59
2022-12-03T14:10:34.381Z,5.58
2022-12-03T14:12:47.573Z,5.55
2022-12-03T14:15:16.335Z,5.51
2022-12-03T14:17:42.330Z,5.49
2022-12-03T14:20:08.872Z,5.44
2022-12-03T14:22:24.706Z,5.40
2022-12-03T14:24:38.010Z,5.37
2022-12-03T14:26:57.114Z,5.33
2022-12-03T14:29:13.158Z,5.30
2022-12-03T14:31:26.598Z,5.28
2022-12-03T14:33:47.735Z,5.26
2022-12-03T14:36:23.459Z,5.24
2022-12-03T14:38:36.725Z,5.22
2022-12-03T14:40:52.216Z,5.21
2022-12-03T14:43:10.549Z,5.21
2022-12-03T14:45:41.007Z,5.19
2022-12-03T14:47:57.552Z,5.20
2022-12-03T14:50:22.332Z,5.19
2022-12-03T14:52:57.257Z,5.17
2022-12-03T14:55:24.462Z,5.16
2022-12-03T14:57:37.733Z,5.16
2022-12-03T14:59:51.608Z,5.16
2022-12-03T15:02:11.838Z,5.16
2022-12-03T15:04:36.232Z,5.17
2022-12-03T15:06:49.605Z,5.17
2022-12-03T15:09:03.026Z,5.16
2022-12-03T15:11:16.370Z,5.16
2022-12-03T15:16:41.606Z,5.18
2022-12-03T15:18:54.912Z,5.18
2022-12-03T15:24:12.768Z,5.19
2022-12-03T15:26:27.041Z,5.19
2022-12-03T15:28:44.103Z,5.19
2022-12-03T15:31:00.042Z,5.20
2022-12-03T15:33:26.403Z,5.20
2022-12-03T15:36:02.212Z,5.20
2022-12-03T15:38:17.632Z,5.20
2022-12-03T15:40:30.925Z,5.18
2022-12-03T15:42:44.305Z,5.18
2022-12-03T15:44:57.889Z,5.17
2022-12-03T15:47:11.259Z,5.17
2022-12-03T15:49:24.713Z,5.15
2022-12-03T15:51:38.156Z,5.15
2022-12-03T15:53:51.374Z,5.14
2022-12-03T15:56:04.634Z,5.14
2022-12-03T15:58:17.880Z,5.14
2022-12-03T16:00:31.269Z,5.15
2022-12-03T16:02:54.885Z,5.17
2022-12-03T16:05:37.926Z,5.18
2022-12-03T16:07:52.564Z,5.21
2022-12-03T16:10:05.950Z,5.25
2022-12-03T16:12:33.591Z,5.28
2022-12-03T16:14:46.832Z,5.31
2022-12-03T16:17:36.371Z,5.34
2022-12-03T16:19:50.281Z,5.38
2022-12-03T16:22:04.484Z,5.41
2022-12-03T16:24:18.519Z,5.44
2022-12-03T16:26:32.146Z,5.47
2022-12-03T16:28:50.151Z,5.50
2022-12-03T16:31:15.118Z,5.52
2022-12-03T16:33:36.496Z,5.56
2022-12-03T16:36:27.443Z,5.59
2022-12-03T16:39:22.388Z,5.65
2022-12-03T16:41:47.822Z,5.71
2022-12-03T16:44:31.759Z,5.74
2022-12-03T16:46:44.987Z,5.78
2022-12-03T16:49:01.176Z,5.80
2022-12-03T16:51:14.995Z,5.81
2022-12-03T16:53:28.435Z,5.81
2022-12-03T16:55:42.114Z,5.81
2022-12-03T16:57:55.401Z,5.82
2022-12-03T17:00:10.180Z,5.82
2022-12-03T17:02:23.404Z,5.81
2022-12-03T17:04:36.857Z,5.81
2022-12-03T17:06:50.460Z,5.81
2022-12-03T17:09:03.647Z,5.80
2022-12-03T17:11:17.008Z,5.80
2022-12-03T17:13:30.336Z,5.80
2022-12-03T17:15:43.823Z,5.80
2022-12-03T17:17:57.032Z,5.79
2022-12-03T17:20:13.771Z,5.78
2022-12-03T17:22:27.008Z,5.78
2022-12-03T17:24:40.336Z,5.77
2022-12-03T17:26:54.355Z,5.76
2022-12-03T17:29:07.701Z,5.74
2022-12-03T17:31:23.186Z,5.73
2022-12-03T17:33:36.479Z,5.72
2022-12-03T17:35:49.734Z,5.70
2022-12-03T17:38:03.720Z,5.69
2022-12-03T17:40:18.531Z,5.67
2022-12-03T17:42:32.506Z,5.67
2022-12-03T17:44:45.771Z,5.66
2022-12-03T17:46:59.090Z,5.67
2022-12-03T17:49:12.332Z,5.68
2022-12-03T17:51:26.333Z,5.69
2022-12-03T17:53:39.557Z,5.70
2022-12-03T17:55:52.767Z,5.71
2022-12-03T17:58:06.246Z,5.72
2022-12-03T18:00:21.435Z,5.73
2022-12-03T18:02:34.688Z,5.75
2022-12-03T18:04:48.033Z,5.77
2022-12-03T18:07:02.653Z,5.79
2022-12-03T18:09:16.105Z,5.79
2022-12-03T18:11:29.580Z,5.81
2022-12-03T18:13:42.801Z,5.83
2022-12-03T18:15:56.292Z,5.84
2022-12-03T18:18:09.725Z,5.85
2022-12-03T18:20:23.107Z,5.87
2022-12-03T18:22:37.283Z,5.88
2022-12-03T18:24:51.915Z,5.90
2022-12-03T18:27:05.509Z,5.92
2022-12-03T18:29:18.697Z,5.92
2022-12-03T18:31:32.251Z,5.94
2022-12-03T18:33:45.756Z,5.95
2022-12-03T18:36:01.657Z,5.97
2022-12-03T18:38:18.014Z,5.97
2022-12-03T18:40:31.601Z,5.99
2022-12-03T18:42:45.019Z,6.00
2022-12-03T18:44:59.813Z,6.02
2022-12-03T18:47:17.773Z,6.04
2022-12-03T18:49:31.064Z,6.07
2022-12-03T18:51:44.391Z,6.09
2022-12-03T18:53:57.787Z,6.13
2022-12-03T18:56:11.606Z,6.16
2022-12-03T18:58:24.936Z,6.19
2022-12-03T19:00:39.232Z,6.22
2022-12-03T19:03:03.009Z,6.23
2022-12-03T19:05:17.607Z,6.25
2022-12-03T19:07:30.953Z,6.28
2022-12-03T19:09:44.636Z,6.33
2022-12-03T19:11:58.057Z,6.38
2022-12-03T19:14:12.305Z,6.43
2022-12-03T19:16:25.599Z,6.49
2022-12-03T19:18:39.043Z,6.54
2022-12-03T19:20:52.224Z,6.56
2022-12-03T19:23:05.453Z,6.59
2022-12-03T19:25:18.771Z,6.60
2022-12-03T19:27:32.867Z,6.60
2022-12-03T19:29:46.093Z,6.61
2022-12-03T19:32:00.221Z,6.61
2022-12-03T19:34:13.609Z,6.61
2022-12-03T19:36:28.884Z,6.61
2022-12-03T19:38:43.695Z,6.62
2022-12-03T19:41:05.110Z,6.62
2022-12-03T19:43:19.011Z,6.61
2022-12-03T19:45:32.481Z,6.60
2022-12-03T19:47:45.861Z,6.59
2022-12-03T19:50:00.851Z,6.59
2022-12-03T19:52:14.295Z,6.60
2022-12-03T19:54:28.054Z,6.62
2022-12-03T19:56:41.874Z,6.63
2022-12-03T19:58:56.785Z,6.64
2022-12-03T20:01:16.551Z,6.65
2022-12-03T20:03:30.054Z,6.67
2022-12-03T20:05:44.773Z,6.69
2022-12-03T20:07:58.275Z,6.72
2022-12-03T20:10:13.911Z,6.78
2022-12-03T20:12:27.266Z,6.84
2022-12-03T20:14:40.663Z,6.91
2022-12-03T20:16:54.184Z,6.98
2022-12-03T20:19:08.737Z,7.04
2022-12-03T20:21:22.890Z,7.10
2022-12-03T20:23:36.390Z,7.15
2022-12-03T20:25:50.106Z,7.19
2022-12-03T20:28:03.425Z,7.21
2022-12-03T20:30:17.854Z,7.23
2022-12-03T20:32:31.326Z,7.24
2022-12-03T20:34:47.075Z,7.24
2022-12-03T20:37:00.248Z,7.21
2022-12-03T20:39:13.754Z,7.19
2022-12-03T20:41:27.353Z,7.16
2022-12-03T20:43:40.735Z,7.12
2022-12-03T20:45:58.037Z,7.07
2022-12-03T20:48:14.737Z,7.01
2022-12-03T20:50:27.967Z,6.95
2022-12-03T20:52:57.645Z,6.91
2022-12-03T20:55:15.845Z,6.88
2022-12-03T20:57:29.139Z,6.86
2022-12-03T20:59:42.483Z,6.86
2022-12-03T21:01:55.972Z,6.85
2022-12-03T21:04:10.011Z,6.85
2022-12-03T21:06:24.032Z,6.85
2022-12-03T21:08:41.507Z,6.86
2022-12-03T21:10:55.378Z,6.88
2022-12-03T21:13:08.820Z,6.89
2022-12-03T21:15:22.358Z,6.90
2022-12-03T21:17:35.822Z,6.92
2022-12-03T21:19:49.971Z,6.93
2022-12-03T21:22:03.517Z,6.95
2022-12-03T21:24:18.097Z,6.96
2022-12-03T21:26:31.520Z,6.97
2022-12-03T21:28:46.747Z,6.98
2022-12-03T21:31:02.823Z,7.01
2022-12-03T21:33:16.081Z,7.02
2022-12-03T21:35:29.250Z,7.02
2022-12-03T21:37:42.457Z,7.03
2022-12-03T21:39:55.852Z,7.03
2022-12-03T21:42:22.289Z,7.03
2022-12-03T21:44:42.680Z,7.04
2022-12-03T21:47:10.952Z,7.03
2022-12-03T21:49:26.415Z,7.01
2022-12-03T21:51:39.713Z,7.01
2022-12-03T21:53:53.162Z,6.97
2022-12-03T21:56:10.286Z,6.95
2022-12-03T21:58:23.525Z,6.93
2022-12-03T22:00:36.858Z,6.91
2022-12-03T22:02:50.327Z,6.90
2022-12-03T22:05:03.657Z,6.88
2022-12-03T22:07:16.994Z,6.86
2022-12-03T22:09:30.254Z,6.86
2022-12-03T22:11:43.522Z,6.85
2022-12-03T22:13:58.338Z,6.83
2022-12-03T22:16:16.182Z,6.82
2022-12-03T22:18:29.547Z,6.81
2022-12-03T22:20:44.937Z,6.79
2022-12-03T22:22:58.197Z,6.76
2022-12-03T22:25:12.079Z,6.75
2022-12-03T22:27:25.565Z,6.73
2022-12-03T22:29:39.189Z,6.72
2022-12-03T22:31:52.436Z,6.71
2022-12-03T22:34:05.881Z,6.70
2022-12-03T22:36:21.371Z,6.69
2022-12-03T22:38:35.569Z,6.68
2022-12-03T22:40:48.838Z,6.67
2022-12-03T22:43:02.295Z,6.68
2022-12-03T22:45:16.358Z,6.68
2022-12-03T22:47:29.735Z,6.68
2022-12-03T22:49:43.172Z,6.68
2022-12-03T22:51:56.652Z,6.69
2022-12-03T22:54:10.383Z,6.69
2022-12-03T22:56:23.854Z,6.69
2022-12-03T22:58:37.174Z,6.69
2022-12-03T23:00:50.980Z,6.70
2022-12-03T23:03:04.487Z,6.70
2022-12-03T23:05:17.976Z,6.71
2022-12-03T23:07:31.492Z,6.72
2022-12-03T23:09:44.931Z,6.72
2022-12-03T23:12:00.119Z,6.72
2022-12-03T23:14:13.483Z,6.72
2022-12-03T23:16:29.116Z,6.70
2022-12-03T23:18:42.537Z,6.70
2022-12-03T23:20:58.550Z,6.69
2022-12-03T23:23:11.931Z,6.69
2022-12-03T23:25:25.922Z,6.67
2022-12-03T23:27:39.385Z,6.66
2022-12-03T23:29:52.881Z,6.66
2022-12-03T23:32:06.961Z,6.66
2022-12-03T23:34:20.399Z,6.65
2022-12-03T23:36:35.592Z,6.64
2022-12-03T23:38:49.047Z,6.65
2022-12-03T23:41:06.373Z,6.63
2022-12-03T23:43:19.662Z,6.62
2022-12-03T23:45:32.987Z,6.60
2022-12-03T23:47:46.192Z,6.58
2022-12-03T23:49:59.664Z,6.56
2022-12-03T23:52:13.001Z,6.54
2022-12-03T23:54:26.371Z,6.52
2022-12-03T23:56:40.572Z,6.50
2022-12-03T23:58:54.284Z,6.48
